Time,TemperatureF,DewpointF,PressureIn,WindDirection,WindDirectionDegrees,WindSpeedMPH,WindSpeedGustMPH,Humidity,HourlyPrecipIn,Conditions,Clouds,dailyrainin,SolarRadiationWatts/m^2,SoftwareType,DateUTC
2013-05-22 00:02:00,58.3,53.1,29.79,NW,309,0.0,0.0,83,0.00,,,0.00,0000,Weather View 32 v70,2013-05-22 07:02:00,
2013-05-22 00:07:00,58.0,52.9,29.79,NW,309,0.0,0.0,83,0.00,,,0.00,0000,Weather View 32 v70,2013-05-22 07:07:00,
2013-05-22 00:12:00,57.8,52.7,29.79,NW,309,0.0,0.0,83,0.00,,,0.00,0000,Weather View 32 v70,2013-05-22 07:12:00,
2013-05-22 00:17:00,57.7,52.9,29.79,NW,309,0.0,0.0,84,0.00,,,0.00,0000,Weather View 32 v70,2013-05-22 07:17:00,
2013-05-22 00:22:00,57.7,53.2,29.79,NW,309,0.0,0.0,85,0.00,,,0.00,0000,Weather View 32 v70,2013-05-22 07:22:00,
2013-05-22 00:27:00,57.8,53.3,29.79,NW,309,0.0,0.0,85,0.00,,,0.00,0000,Weather View 32 v70,2013-05-22 07:27:00,
2013-05-22 00:32:00,57.8,53.6,29.79,NW,309,0.0,0.0,86,0.00,,,0.00,0000,Weather View 32 v70,2013-05-22 07:32:00,
2013-05-22 00:37:00,57.7,53.2,29.78,NW,309,0.0,0.0,85,0.00,,,0.00,0000,Weather View 32 v70,2013-05-22 07:37:00,
2013-05-22 00:42:00,57.5,53.0,29.78,NW,309,0.0,0.0,85,0.00,,,0.00,0000,Weather View 32 v70,2013-05-22 07:42:00,
2013-05-22 00:47:00,57.5,53.3,29.78,NW,309,0.0,0.0,86,0.00,,,0.00,0000,Weather View 32 v70,2013-05-22 07:47:00,
2013-05-22 00:52:00,57.3,53.1,29.78,NW,309,0.0,0.0,86,0.00,,,0.00,0000,Weather View 32 v70,2013-05-22 07:52:00,
2013-05-22 00:57:00,57.4,53.2,29.78,NW,309,0.0,0.0,86,0.00,,,0.00,0000,Weather View 32 v70,2013-05-22 07:57:00,
2013-05-22 01:02:00,57.5,53.0,29.78,NW,309,0.0,0.0,85,0.00,,,0.00,0000,Weather View 32 v70,2013-05-22 08:02:00,
2013-05-22 01:07:00,57.3,52.8,29.78,NW,309,0.0,0.0,85,0.00,,,0.00,0000,Weather View 32 v70,2013-05-22 08:07:00,
2013-05-22 01:12:00,56.9,52.7,29.78,NW,309,0.0,0.0,86,0.00,,,0.00,0000,Weather View 32 v70,2013-05-22 08:12:00,
2013-05-22 01:17:00,56.7,52.5,29.78,NW,309,0.0,0.0,86,0.00,,,0.00,0000,Weather View 32 v70,2013-05-22 08:17:00,
2013-05-22 01:22:00,56.6,52.5,29.77,NW,309,0.0,0.0,86,0.00,,,0.00,0000,Weather View 32 v70,2013-05-22 08:22:00,
2013-05-22 01:27:00,56.8,53.0,29.77,NW,309,0.0,0.0,87,0.00,,,0.00,0000,Weather View 32 v70,2013-05-22 08:27:00,
2013-05-22 01:32:00,56.8,53.0,29.77,NW,309,0.0,0.0,87,0.00,,,0.00,0000,Weather View 32 v70,2013-05-22 08:32:00,
2013-05-22 01:37:00,56.8,53.0,29.77,NW,309,0.0,0.0,87,0.00,,,0.00,0000,Weather View 32 v70,2013-05-22 08:37:00,
2013-05-22 01:42:00,56.7,52.9,29.77,NW,309,0.0,0.0,87,0.00,,,0.00,0000,Weather View 32 v70,2013-05-22 08:42:00,
2013-05-22 01:47:00,56.6,52.8,29.77,NW,309,0.0,0.0,87,0.00,,,0.00,0000,Weather View 32 v70,2013-05-22 08:47:00,
2013-05-22 01:52:00,56.3,52.2,29.77,NW,309,0.0,0.0,86,0.00,,,0.00,0000,Weather View 32 v70,2013-05-22 08:52:00,
2013-05-22 01:57:00,56.1,52.3,29.77,NW,309,0.0,0.0,87,0.00,,,0.00,0000,Weather View 32 v70,2013-05-22 08:57:00,
2013-05-22 02:02:00,55.9,52.1,29.77,NW,309,0.0,0.0,87,0.00,,,0.00,0000,Weather View 32 v70,2013-05-22 09:02:00,
2013-05-22 02:07:00,55.7,51.9,29.77,NW,309,0.0,0.0,87,0.00,,,0.00,0000,Weather View 32 v70,2013-05-22 09:07:00,
2013-05-22 02:12:00,55.8,52.0,29.77,NW,309,0.0,0.0,87,0.00,,,0.00,0000,Weather View 32 v70,2013-05-22 09:12:00,
2013-05-22 02:17:00,55.8,52.0,29.77,NW,309,0.0,0.0,87,0.00,,,0.00,0000,Weather View 32 v70,2013-05-22 09:17:00,
2013-05-22 02:22:00,55.7,51.9,29.76,NW,309,0.0,0.0,87,0.00,,,0.00,0000,Weather View 32 v70,2013-05-22 09:22:00,
2013-05-22 02:27:00,55.6,51.8,29.76,NW,309,0.0,0.0,87,0.00,,,0.00,0000,Weather View 32 v70,2013-05-22 09:27:00,
2013-05-22 02:32:00,55.5,51.7,29.76,NW,309,0.0,0.0,87,0.00,,,0.00,0000,Weather View 32 v70,2013-05-22 09:32:00,
2013-05-22 02:37:00,55.2,51.4,29.76,NW,309,0.0,0.0,87,0.00,,,0.00,0000,Weather View 32 v70,2013-05-22 09:37:00,
2013-05-22 02:42:00,55.0,51.2,29.76,NW,309,0.0,0.0,87,0.00,,,0.00,0000,Weather View 32 v70,2013-05-22 09:42:00,
2013-05-22 02:47:00,54.8,51.0,29.76,NW,309,0.0,0.0,87,0.00,,,0.00,0000,Weather View 32 v70,2013-05-22 09:47:00,
2013-05-22 02:52:00,54.8,51.3,29.76,NW,309,0.0,0.0,88,0.00,,,0.00,0000,Weather View 32 v70,2013-05-22 09:52:00,
2013-05-22 02:57:00,54.8,51.3,29.76,NW,309,0.0,0.0,88,0.00,,,0.00,0000,Weather View 32 v70,2013-05-22 09:57:00,
2013-05-22 03:02:00,54.7,51.5,29.76,NW,309,0.0,0.0,89,0.00,,,0.00,0000,Weather View 32 v70,2013-05-22 10:02:00,
2013-05-22 03:07:00,54.8,51.6,29.76,NW,309,0.0,0.0,89,0.00,,,0.00,0000,Weather View 32 v70,2013-05-22 10:07:00,
2013-05-22 03:12:00,54.6,51.4,29.76,NW,309,0.0,0.0,89,0.00,,,0.00,0000,Weather View 32 v70,2013-05-22 10:12:00,
2013-05-22 03:17:00,54.4,51.2,29.75,NW,309,0.0,0.0,89,0.00,,,0.00,0000,Weather View 32 v70,2013-05-22 10:17:00,
2013-05-22 03:22:00,54.3,51.1,29.75,NW,309,0.0,0.0,89,0.00,,,0.00,0000,Weather View 32 v70,2013-05-22 10:22:00,
2013-05-22 03:27:00,54.1,50.9,29.75,NW,309,0.0,0.0,89,0.00,,,0.00,0000,Weather View 32 v70,2013-05-22 10:27:00,
2013-05-22 03:32:00,53.8,50.6,29.75,NW,309,0.0,0.0,89,0.00,,,0.00,0000,Weather View 32 v70,2013-05-22 10:32:00,
2013-05-22 03:37:00,53.7,50.5,29.75,NW,309,0.0,0.0,89,0.00,,,0.00,0000,Weather View 32 v70,2013-05-22 10:37:00,
2013-05-22 03:42:00,53.7,50.8,29.75,NW,309,0.0,0.0,90,0.00,,,0.00,0000,Weather View 32 v70,2013-05-22 10:42:00,
2013-05-22 03:47:00,53.7,50.8,29.75,NW,309,0.0,0.0,90,0.00,,,0.00,0000,Weather View 32 v70,2013-05-22 10:47:00,
2013-05-22 03:52:00,53.3,50.4,29.76,NW,309,0.0,0.0,90,0.00,,,0.00,0000,Weather View 32 v70,2013-05-22 10:52:00,
2013-05-22 03:57:00,53.2,50.3,29.76,NW,309,0.0,0.0,90,0.00,,,0.00,0000,Weather View 32 v70,2013-05-22 10:57:00,
2013-05-22 04:02:00,53.1,50.2,29.76,NW,309,0.0,0.0,90,0.00,,,0.00,0000,Weather View 32 v70,2013-05-22 11:02:00,
2013-05-22 04:07:00,52.9,50.0,29.76,NW,309,0.0,0.0,90,0.00,,,0.00,0000,Weather View 32 v70,2013-05-22 11:07:00,
2013-05-22 04:12:00,52.9,50.0,29.76,NW,309,0.0,0.0,90,0.00,,,0.00,0000,Weather View 32 v70,2013-05-22 11:12:00,
2013-05-22 04:17:00,52.9,50.0,29.76,NW,309,0.0,0.0,90,0.00,,,0.00,0000,Weather View 32 v70,2013-05-22 11:17:00,
2013-05-22 04:22:00,52.8,49.9,29.76,NW,309,0.0,0.0,90,0.00,,,0.00,0000,Weather View 32 v70,2013-05-22 11:22:00,
2013-05-22 04:27:00,52.7,49.8,29.76,NW,309,0.0,0.0,90,0.00,,,0.00,0000,Weather View 32 v70,2013-05-22 11:27:00,
2013-05-22 04:32:00,52.9,50.0,29.76,NW,309,0.0,0.0,90,0.00,,,0.00,0000,Weather View 32 v70,2013-05-22 11:32:00,
2013-05-22 04:37:00,52.9,50.0,29.76,NW,309,0.0,0.0,90,0.00,,,0.00,0000,Weather View 32 v70,2013-05-22 11:37:00,
2013-05-22 04:42:00,53.2,50.6,29.76,NW,309,0.0,0.0,91,0.00,,,0.00,0000,Weather View 32 v70,2013-05-22 11:42:00,
2013-05-22 04:47:00,53.2,50.6,29.76,NW,309,0.0,0.0,91,0.00,,,0.00,0000,Weather View 32 v70,2013-05-22 11:47:00,
2013-05-22 04:52:00,53.1,50.2,29.76,NW,309,0.0,0.0,90,0.00,,,0.00,0000,Weather View 32 v70,2013-05-22 11:52:00,
2013-05-22 04:57:00,53.0,50.1,29.76,NW,309,0.0,0.0,90,0.00,,,0.00,0000,Weather View 32 v70,2013-05-22 11:57:00,
2013-05-22 05:02:00,53.2,50.6,29.76,NW,309,0.0,0.0,91,0.00,,,0.00,0000,Weather View 32 v70,2013-05-22 12:02:00,
2013-05-22 05:07:00,53.4,50.8,29.77,NW,309,0.0,0.0,91,0.00,,,0.00,0000,Weather View 32 v70,2013-05-22 12:07:00,
2013-05-22 05:12:00,53.7,50.8,29.77,NW,309,0.0,0.0,90,0.00,,,0.00,0000,Weather View 32 v70,2013-05-22 12:12:00,
2013-05-22 05:17:00,53.9,51.3,29.77,NW,309,0.0,0.0,91,0.00,,,0.00,0000,Weather View 32 v70,2013-05-22 12:17:00,
2013-05-22 05:22:00,54.1,51.2,29.77,NW,309,0.0,0.0,90,0.00,,,0.00,0000,Weather View 32 v70,2013-05-22 12:22:00,
2013-05-22 05:27:00,54.2,51.3,29.76,NW,309,0.0,0.0,90,0.00,,,0.00,0000,Weather View 32 v70,2013-05-22 12:27:00,
2013-05-22 05:32:00,54.4,51.5,29.77,NW,309,0.0,0.0,90,0.00,,,0.00,0000,Weather View 32 v70,2013-05-22 12:32:00,
2013-05-22 05:37:00,54.4,51.5,29.77,NW,309,0.0,0.0,90,0.00,,,0.00,0000,Weather View 32 v70,2013-05-22 12:37:00,
2013-05-22 05:42:00,54.5,51.6,29.77,NW,309,0.0,0.0,90,0.00,,,0.00,0000,Weather View 32 v70,2013-05-22 12:42:00,
2013-05-22 05:47:00,54.6,51.7,29.77,NW,309,0.0,0.0,90,0.00,,,0.00,0000,Weather View 32 v70,2013-05-22 12:47:00,
2013-05-22 05:52:00,54.6,51.4,29.77,NW,309,0.0,0.0,89,0.00,,,0.00,0000,Weather View 32 v70,2013-05-22 12:52:00,
2013-05-22 05:57:00,54.6,51.4,29.77,NW,309,0.0,0.0,89,0.00,,,0.00,0000,Weather View 32 v70,2013-05-22 12:57:00,
2013-05-22 06:02:00,54.8,51.6,29.77,NW,309,0.0,0.0,89,0.00,,,0.00,0000,Weather View 32 v70,2013-05-22 13:02:00,
2013-05-22 06:07:00,54.9,51.4,29.77,NW,309,0.0,0.0,88,0.00,,,0.00,0000,Weather View 32 v70,2013-05-22 13:07:00,
2013-05-22 06:12:00,54.9,51.4,29.77,NW,309,0.0,0.0,88,0.00,,,0.00,0005,Weather View 32 v70,2013-05-22 13:12:00,
2013-05-22 06:17:00,54.9,51.4,29.77,NW,309,0.0,0.0,88,0.00,,,0.00,0009,Weather View 32 v70,2013-05-22 13:17:00,
2013-05-22 06:22:00,54.9,51.1,29.77,NW,309,0.0,0.0,87,0.00,,,0.00,0009,Weather View 32 v70,2013-05-22 13:22:00,
2013-05-22 06:27:00,54.9,51.1,29.78,NW,309,0.0,0.0,87,0.00,,,0.00,0012,Weather View 32 v70,2013-05-22 13:27:00,
2013-05-22 06:32:00,54.9,50.8,29.78,NW,309,0.0,0.0,86,0.00,,,0.00,0014,Weather View 32 v70,2013-05-22 13:32:00,
2013-05-22 06:37:00,55.0,50.9,29.78,NW,309,0.0,0.0,86,0.00,,,0.00,0018,Weather View 32 v70,2013-05-22 13:37:00,
2013-05-22 06:42:00,55.0,50.9,29.78,NW,309,0.0,0.0,86,0.00,,,0.00,0019,Weather View 32 v70,2013-05-22 13:42:00,
2013-05-22 06:47:00,55.0,50.6,29.78,NW,309,0.0,1.0,85,0.00,,,0.00,0023,Weather View 32 v70,2013-05-22 13:47:00,
2013-05-22 06:52:00,55.2,50.8,29.78,NW,309,0.0,1.0,85,0.00,,,0.00,0026,Weather View 32 v70,2013-05-22 13:52:00,
2013-05-22 06:57:00,55.3,50.9,29.78,NW,309,0.0,1.0,85,0.00,,,0.00,0032,Weather View 32 v70,2013-05-22 13:57:00,
2013-05-22 07:02:00,55.3,50.5,29.78,NW,309,0.0,1.0,84,0.00,,,0.00,0035,Weather View 32 v70,2013-05-22 14:02:00,
2013-05-22 07:07:00,55.3,50.9,29.78,NW,309,0.0,1.0,85,0.00,,,0.00,0037,Weather View 32 v70,2013-05-22 14:07:00,
2013-05-22 07:12:00,55.4,51.0,29.79,NW,309,0.0,1.0,85,0.00,,,0.00,0035,Weather View 32 v70,2013-05-22 14:12:00,
2013-05-22 07:17:00,55.5,51.1,29.79,NW,309,0.0,1.0,85,0.00,,,0.00,0037,Weather View 32 v70,2013-05-22 14:17:00,
2013-05-22 07:22:00,55.5,51.1,29.79,NW,309,0.0,1.0,85,0.00,,,0.00,0042,Weather View 32 v70,2013-05-22 14:22:00,
2013-05-22 07:27:00,55.5,51.1,29.79,NW,309,0.0,1.0,85,0.00,,,0.00,0042,Weather View 32 v70,2013-05-22 14:27:00,
2013-05-22 07:32:00,55.6,50.8,29.80,NW,309,0.0,1.0,84,0.00,,,0.00,0042,Weather View 32 v70,2013-05-22 14:32:00,
2013-05-22 07:37:00,55.6,50.8,29.80,NW,309,0.0,1.0,84,0.00,,,0.00,0044,Weather View 32 v70,2013-05-22 14:37:00,
2013-05-22 07:42:00,55.7,50.9,29.80,NW,309,0.0,1.0,84,0.00,,,0.00,0047,Weather View 32 v70,2013-05-22 14:42:00,
2013-05-22 07:47:00,55.9,51.1,29.80,NW,309,0.0,1.0,84,0.00,,,0.00,0047,Weather View 32 v70,2013-05-22 14:47:00,
2013-05-22 07:52:00,56.1,51.3,29.80,NW,309,0.0,1.0,84,0.00,,,0.00,0047,Weather View 32 v70,2013-05-22 14:52:00,
2013-05-22 07:57:00,56.2,51.4,29.80,NW,309,0.0,1.0,84,0.00,,,0.00,0060,Weather View 32 v70,2013-05-22 14:57:00,
2013-05-22 08:02:00,56.2,51.7,29.80,NW,309,0.0,1.0,85,0.00,,,0.00,0072,Weather View 32 v70,2013-05-22 15:02:00,
2013-05-22 08:07:00,56.5,52.4,29.80,NW,309,0.0,1.0,86,0.00,,,0.00,0102,Weather View 32 v70,2013-05-22 15:07:00,
2013-05-22 08:12:00,57.1,52.9,29.80,NW,309,0.0,1.0,86,0.00,,,0.00,0134,Weather View 32 v70,2013-05-22 15:12:00,
2013-05-22 08:17:00,58.2,53.7,29.80,NW,309,0.0,1.0,85,0.00,,,0.00,0141,Weather View 32 v70,2013-05-22 15:17:00,
2013-05-22 08:22:00,58.8,53.3,29.80,NW,309,0.0,1.0,82,0.00,,,0.00,0113,Weather View 32 v70,2013-05-22 15:22:00,
2013-05-22 08:27:00,59.0,53.8,29.80,NW,309,0.0,1.0,83,0.00,,,0.00,0127,Weather View 32 v70,2013-05-22 15:27:00,
2013-05-22 08:32:00,59.0,53.5,29.80,NW,309,0.0,1.0,82,0.00,,,0.00,0158,Weather View 32 v70,2013-05-22 15:32:00,
2013-05-22 08:37:00,59.0,53.2,29.80,NW,309,0.0,1.0,81,0.00,,,0.00,0158,Weather View 32 v70,2013-05-22 15:37:00,
2013-05-22 08:42:00,59.0,53.2,29.80,NW,309,0.0,1.0,81,0.00,,,0.00,0200,Weather View 32 v70,2013-05-22 15:42:00,
2013-05-22 08:47:00,59.6,53.4,29.80,NW,309,0.0,1.0,80,0.00,,,0.00,0260,Weather View 32 v70,2013-05-22 15:47:00,
2013-05-22 08:52:00,59.8,52.9,29.80,NW,309,0.0,1.0,78,0.00,,,0.00,0285,Weather View 32 v70,2013-05-22 15:52:00,
2013-05-22 08:57:00,61.6,54.7,29.80,NW,309,0.0,1.0,78,0.00,,,0.00,0388,Weather View 32 v70,2013-05-22 15:57:00,
2013-05-22 09:02:00,63.6,56.6,29.80,NW,309,0.0,1.0,78,0.00,,,0.00,0325,Weather View 32 v70,2013-05-22 16:02:00,
2013-05-22 09:07:00,63.1,55.4,29.80,NW,309,0.0,1.0,76,0.00,,,0.00,0429,Weather View 32 v70,2013-05-22 16:07:00,
2013-05-22 09:12:00,63.7,55.2,29.80,NW,309,0.0,1.0,74,0.00,,,0.00,0664,Weather View 32 v70,2013-05-22 16:12:00,
2013-05-22 09:17:00,64.8,56.7,29.80,NW,309,0.0,1.0,75,0.00,,,0.00,0654,Weather View 32 v70,2013-05-22 16:17:00,
2013-05-22 09:22:00,65.1,55.4,29.80,NW,309,0.0,1.0,71,0.00,,,0.00,0675,Weather View 32 v70,2013-05-22 16:22:00,
2013-05-22 09:27:00,67.2,57.4,29.80,NW,309,0.0,1.0,71,0.00,,,0.00,0677,Weather View 32 v70,2013-05-22 16:27:00,
2013-05-22 09:32:00,64.7,54.3,29.79,NW,309,0.0,1.0,69,0.00,,,0.00,0264,Weather View 32 v70,2013-05-22 16:32:00,
2013-05-22 09:37:00,64.7,55.4,29.79,NW,309,0.0,1.0,72,0.00,,,0.00,0763,Weather View 32 v70,2013-05-22 16:37:00,
2013-05-22 09:42:00,65.8,54.9,29.80,NW,309,0.0,1.0,68,0.00,,,0.00,0744,Weather View 32 v70,2013-05-22 16:42:00,
2013-05-22 09:47:00,66.0,56.7,29.79,NW,309,0.0,2.0,72,0.00,,,0.00,0816,Weather View 32 v70,2013-05-22 16:47:00,
2013-05-22 09:52:00,66.3,55.8,29.79,NW,309,0.0,2.0,69,0.00,,,0.00,0292,Weather View 32 v70,2013-05-22 16:52:00,
2013-05-22 09:57:00,67.4,56.0,29.79,NW,326,0.0,4.0,67,0.00,,,0.00,0812,Weather View 32 v70,2013-05-22 16:57:00,
2013-05-22 10:02:00,67.5,56.9,29.79,NW,326,0.0,4.0,69,0.00,,,0.00,0763,Weather View 32 v70,2013-05-22 17:02:00,
2013-05-22 10:07:00,68.0,55.3,29.79,NW,326,0.0,4.0,64,0.00,,,0.00,0791,Weather View 32 v70,2013-05-22 17:07:00,
2013-05-22 10:12:00,67.7,56.3,29.79,NW,326,0.0,4.0,67,0.00,,,0.00,0791,Weather View 32 v70,2013-05-22 17:12:00,
2013-05-22 10:17:00,68.0,56.2,29.79,NW,326,0.0,4.0,66,0.00,,,0.00,0810,Weather View 32 v70,2013-05-22 17:17:00,
2013-05-22 10:22:00,68.8,56.9,29.79,NW,326,0.0,4.0,66,0.00,,,0.00,0817,Weather View 32 v70,2013-05-22 17:22:00,
2013-05-22 10:27:00,69.3,56.6,29.79,NW,306,0.0,4.0,64,0.00,,,0.00,0830,Weather View 32 v70,2013-05-22 17:27:00,
2013-05-22 10:32:00,69.5,56.3,29.78,NW,306,0.0,4.0,63,0.00,,,0.00,0844,Weather View 32 v70,2013-05-22 17:32:00,
2013-05-22 10:37:00,70.6,56.5,29.79,NW,316,2.0,4.0,61,0.00,,,0.00,0851,Weather View 32 v70,2013-05-22 17:37:00,
2013-05-22 10:42:00,70.6,56.9,29.78,NNW,330,0.0,5.0,62,0.00,,,0.00,0860,Weather View 32 v70,2013-05-22 17:42:00,
2013-05-22 10:47:00,72.1,56.9,29.78,NW,317,0.0,5.0,59,0.00,,,0.00,0870,Weather View 32 v70,2013-05-22 17:47:00,
2013-05-22 10:52:00,71.6,56.5,29.78,NW,312,0.0,5.0,59,0.00,,,0.00,0875,Weather View 32 v70,2013-05-22 17:52:00,
2013-05-22 10:57:00,70.7,56.1,29.78,NNW,327,2.0,5.0,60,0.00,,,0.00,0874,Weather View 32 v70,2013-05-22 17:57:00,
2013-05-22 11:02:00,73.5,57.3,29.78,NW,319,0.0,5.0,57,0.00,,,0.00,0896,Weather View 32 v70,2013-05-22 18:02:00,
2013-05-22 11:07:00,72.6,57.4,29.78,NW,317,1.0,5.0,59,0.00,,,0.00,0900,Weather View 32 v70,2013-05-22 18:07:00,
2013-05-22 11:12:00,71.8,56.7,29.78,NW,314,0.0,5.0,59,0.00,,,0.00,0912,Weather View 32 v70,2013-05-22 18:12:00,
2013-05-22 11:17:00,72.2,56.1,29.78,NW,314,0.0,5.0,57,0.00,,,0.00,0914,Weather View 32 v70,2013-05-22 18:17:00,
2013-05-22 11:22:00,72.4,57.2,29.77,NW,308,0.0,5.0,59,0.00,,,0.00,0916,Weather View 32 v70,2013-05-22 18:22:00,
2013-05-22 11:27:00,73.4,57.2,29.77,NW,310,0.0,5.0,57,0.00,,,0.00,0923,Weather View 32 v70,2013-05-22 18:27:00,
2013-05-22 11:32:00,73.8,57.1,29.77,NW,304,0.0,5.0,56,0.00,,,0.00,0914,Weather View 32 v70,2013-05-22 18:32:00,
2013-05-22 11:37:00,72.3,56.2,29.77,NW,304,0.0,5.0,57,0.00,,,0.00,0939,Weather View 32 v70,2013-05-22 18:37:00,
2013-05-22 11:42:00,72.3,56.2,29.77,NW,309,0.0,5.0,57,0.00,,,0.00,0939,Weather View 32 v70,2013-05-22 18:42:00,
2013-05-22 11:47:00,71.7,55.1,29.77,WNW,302,0.0,5.0,56,0.00,,,0.00,0939,Weather View 32 v70,2013-05-22 18:47:00,
2013-05-22 11:52:00,72.0,56.4,29.78,WNW,302,0.0,5.0,58,0.00,,,0.00,0932,Weather View 32 v70,2013-05-22 18:52:00,
2013-05-22 11:57:00,71.3,56.2,29.77,NW,322,0.0,5.0,59,0.00,,,0.00,0942,Weather View 32 v70,2013-05-22 18:57:00,
2013-05-22 12:02:00,71.9,55.8,29.77,NW,313,0.0,5.0,57,0.00,,,0.00,0946,Weather View 32 v70,2013-05-22 19:02:00,
2013-05-22 12:07:00,71.6,55.0,29.77,NW,314,0.0,5.0,56,0.00,,,0.00,0935,Weather View 32 v70,2013-05-22 19:07:00,
2013-05-22 12:12:00,72.0,55.4,29.77,NW,317,0.0,5.0,56,0.00,,,0.00,0953,Weather View 32 v70,2013-05-22 19:12:00,
2013-05-22 12:17:00,72.2,56.1,29.77,North,350,1.0,5.0,57,0.00,,,0.00,0949,Weather View 32 v70,2013-05-22 19:17:00,
2013-05-22 12:22:00,72.0,55.4,29.77,North,349,0.0,5.0,56,0.00,,,0.00,0949,Weather View 32 v70,2013-05-22 19:22:00,
2013-05-22 12:27:00,72.2,56.1,29.77,NW,309,0.0,5.0,57,0.00,,,0.00,0186,Weather View 32 v70,2013-05-22 19:27:00,
2013-05-22 12:32:00,72.6,56.0,29.77,NNW,329,0.0,5.0,56,0.00,,,0.00,0204,Weather View 32 v70,2013-05-22 19:32:00,
2013-05-22 12:37:00,71.4,54.3,29.76,NNW,333,1.0,5.0,55,0.00,,,0.00,0135,Weather View 32 v70,2013-05-22 19:37:00,
2013-05-22 12:42:00,72.1,55.5,29.76,NNW,333,0.0,5.0,56,0.00,,,0.00,0434,Weather View 32 v70,2013-05-22 19:42:00,
2013-05-22 12:47:00,71.3,54.2,29.76,NW,310,0.0,5.0,55,0.00,,,0.00,0116,Weather View 32 v70,2013-05-22 19:47:00,
2013-05-22 12:52:00,71.1,54.6,29.76,NW,317,0.0,5.0,56,0.00,,,0.00,0141,Weather View 32 v70,2013-05-22 19:52:00,
2013-05-22 12:57:00,71.4,55.3,29.77,NW,313,0.0,5.0,57,0.00,,,0.00,0105,Weather View 32 v70,2013-05-22 19:57:00,
2013-05-22 13:03:00,71.0,54.5,29.77,NW,313,0.0,4.0,56,0.00,,,0.00,0113,Weather View 32 v70,2013-05-22 20:03:00,
2013-05-22 13:08:00,71.3,55.2,29.76,NW,321,0.0,4.0,57,0.00,,,0.00,0114,Weather View 32 v70,2013-05-22 20:08:00,
2013-05-22 13:13:00,71.7,54.1,29.76,NW,316,0.0,4.0,54,0.00,,,0.00,0111,Weather View 32 v70,2013-05-22 20:13:00,
2013-05-22 13:18:00,71.4,54.3,29.76,NW,313,1.0,4.0,55,0.00,,,0.00,0109,Weather View 32 v70,2013-05-22 20:18:00,
2013-05-22 13:23:00,71.9,55.3,29.75,NW,304,0.0,4.0,56,0.00,,,0.00,0109,Weather View 32 v70,2013-05-22 20:23:00,
2013-05-22 13:28:00,72.1,55.5,29.75,NW,310,0.0,4.0,56,0.00,,,0.00,0107,Weather View 32 v70,2013-05-22 20:28:00,
2013-05-22 13:33:00,72.1,55.0,29.75,NW,314,0.0,4.0,55,0.00,,,0.00,0102,Weather View 32 v70,2013-05-22 20:33:00,
2013-05-22 13:38:00,71.7,54.6,29.75,NW,314,0.0,4.0,55,0.00,,,0.00,0107,Weather View 32 v70,2013-05-22 20:38:00,
2013-05-22 13:43:00,71.8,54.7,29.75,NW,308,0.0,4.0,55,0.00,,,0.00,0111,Weather View 32 v70,2013-05-22 20:43:00,
2013-05-22 13:48:00,71.7,55.6,29.76,NW,326,0.0,3.0,57,0.00,,,0.00,0109,Weather View 32 v70,2013-05-22 20:48:00,
2013-05-22 13:53:00,72.1,55.0,29.75,NW,325,2.0,3.0,55,0.00,,,0.00,0107,Weather View 32 v70,2013-05-22 20:53:00,
2013-05-22 13:58:00,72.0,55.4,29.75,WNW,299,0.0,3.0,56,0.00,,,0.00,0111,Weather View 32 v70,2013-05-22 20:58:00,
2013-05-22 14:03:00,72.6,55.0,29.75,NNW,336,0.0,3.0,54,0.00,,,0.00,0209,Weather View 32 v70,2013-05-22 21:03:00,
2013-05-22 14:08:00,72.0,55.4,29.75,NW,319,0.0,4.0,56,0.00,,,0.00,0137,Weather View 32 v70,2013-05-22 21:08:00,
2013-05-22 14:13:00,72.2,55.6,29.75,NNW,327,0.0,4.0,56,0.00,,,0.00,0253,Weather View 32 v70,2013-05-22 21:13:00,
2013-05-22 14:18:00,72.1,55.0,29.75,NW,323,0.0,4.0,55,0.00,,,0.00,0111,Weather View 32 v70,2013-05-22 21:18:00,
2013-05-22 14:23:00,71.8,54.7,29.75,North,11,0.0,4.0,55,0.00,,,0.00,0111,Weather View 32 v70,2013-05-22 21:23:00,
2013-05-22 14:28:00,70.8,54.3,29.75,NW,326,0.0,4.0,56,0.00,,,0.00,0132,Weather View 32 v70,2013-05-22 21:28:00,
2013-05-22 14:33:00,71.7,55.1,29.75,NNW,341,0.0,4.0,56,0.00,,,0.00,0116,Weather View 32 v70,2013-05-22 21:33:00,
2013-05-22 14:38:00,72.6,56.4,29.75,WNW,302,0.0,4.0,57,0.00,,,0.00,0144,Weather View 32 v70,2013-05-22 21:38:00,
2013-05-22 14:43:00,72.0,54.9,29.75,NW,319,0.0,4.0,55,0.00,,,0.00,0121,Weather View 32 v70,2013-05-22 21:43:00,
2013-05-22 14:48:00,71.3,54.2,29.75,NW,313,0.0,4.0,55,0.00,,,0.00,0151,Weather View 32 v70,2013-05-22 21:48:00,
2013-05-22 14:53:00,70.8,54.3,29.75,NW,317,0.0,4.0,56,0.00,,,0.00,0135,Weather View 32 v70,2013-05-22 21:53:00,
2013-05-22 14:58:00,70.5,55.0,29.74,NW,304,0.0,4.0,58,0.00,,,0.00,0113,Weather View 32 v70,2013-05-22 21:58:00,
2013-05-22 15:03:00,70.3,53.8,29.74,NW,320,0.0,4.0,56,0.00,,,0.00,0113,Weather View 32 v70,2013-05-22 22:03:00,
2013-05-22 15:08:00,70.4,54.4,29.74,NW,310,0.0,2.0,57,0.00,,,0.00,0118,Weather View 32 v70,2013-05-22 22:08:00,
2013-05-22 15:13:00,70.6,55.1,29.74,NW,308,0.0,2.0,58,0.00,,,0.00,0329,Weather View 32 v70,2013-05-22 22:13:00,
2013-05-22 15:18:00,70.9,55.3,29.74,NNW,334,0.0,3.0,58,0.00,,,0.00,0563,Weather View 32 v70,2013-05-22 22:18:00,
2013-05-22 15:23:00,71.6,54.5,29.74,NW,315,0.0,4.0,55,0.00,,,0.00,0766,Weather View 32 v70,2013-05-22 22:23:00,
2013-05-22 15:28:00,71.4,55.8,29.73,WNW,300,0.0,4.0,58,0.00,,,0.00,0111,Weather View 32 v70,2013-05-22 22:28:00,
2013-05-22 15:33:00,72.0,55.4,29.73,WNW,300,0.0,4.0,56,0.00,,,0.00,0174,Weather View 32 v70,2013-05-22 22:33:00,
2013-05-22 15:38:00,71.3,54.7,29.73,WNW,300,0.0,4.0,56,0.00,,,0.00,0257,Weather View 32 v70,2013-05-22 22:38:00,
2013-05-22 15:43:00,71.5,54.9,29.73,NW,311,0.0,4.0,56,0.00,,,0.00,0109,Weather View 32 v70,2013-05-22 22:43:00,
2013-05-22 15:48:00,71.0,55.0,29.73,NW,311,0.0,4.0,57,0.00,,,0.00,0104,Weather View 32 v70,2013-05-22 22:48:00,
2013-05-22 15:53:00,71.0,55.0,29.73,NW,321,0.0,4.0,57,0.00,,,0.00,0104,Weather View 32 v70,2013-05-22 22:53:00,
2013-05-22 15:58:00,70.4,54.4,29.73,NW,321,0.0,4.0,57,0.00,,,0.00,0100,Weather View 32 v70,2013-05-22 22:58:00,
2013-05-22 16:03:00,70.2,53.7,29.73,NW,321,0.0,4.0,56,0.00,,,0.00,0100,Weather View 32 v70,2013-05-22 23:03:00,
2013-05-22 16:08:00,70.3,54.8,29.73,NW,323,0.0,4.0,58,0.00,,,0.00,0193,Weather View 32 v70,2013-05-22 23:08:00,
2013-05-22 16:13:00,70.6,54.6,29.73,NW,323,0.0,4.0,57,0.00,,,0.00,0144,Weather View 32 v70,2013-05-22 23:13:00,
2013-05-22 16:18:00,70.6,54.1,29.72,NW,323,0.0,4.0,56,0.00,,,0.00,0200,Weather View 32 v70,2013-05-22 23:18:00,
2013-05-22 16:23:00,71.1,55.0,29.72,NW,305,0.0,4.0,57,0.00,,,0.00,0200,Weather View 32 v70,2013-05-22 23:23:00,
2013-05-22 16:28:00,71.1,55.0,29.72,NW,304,0.0,4.0,57,0.00,,,0.00,0200,Weather View 32 v70,2013-05-22 23:28:00,
2013-05-22 16:33:00,70.6,54.1,29.72,NW,304,0.0,4.0,56,0.00,,,0.00,0109,Weather View 32 v70,2013-05-22 23:33:00,
2013-05-22 16:38:00,71.3,55.2,29.72,NW,304,0.0,4.0,57,0.00,,,0.00,0250,Weather View 32 v70,2013-05-22 23:38:00,
2013-05-22 16:43:00,71.2,54.2,29.72,NW,305,0.0,4.0,55,0.00,,,0.00,0160,Weather View 32 v70,2013-05-22 23:43:00,
2013-05-22 16:48:00,71.0,55.0,29.72,NW,323,0.0,5.0,57,0.00,,,0.00,0424,Weather View 32 v70,2013-05-22 23:48:00,
2013-05-22 16:53:00,70.4,53.4,29.72,NW,323,0.0,5.0,55,0.00,,,0.00,0459,Weather View 32 v70,2013-05-22 23:53:00,
2013-05-22 16:58:00,70.1,53.6,29.72,NW,323,1.0,5.0,56,0.00,,,0.00,0434,Weather View 32 v70,2013-05-22 23:58:00,
2013-05-22 17:03:00,69.9,54.4,29.71,NW,315,0.0,5.0,58,0.00,,,0.00,0482,Weather View 32 v70,2013-05-23 00:03:00,
2013-05-22 17:08:00,70.1,54.6,29.71,NW,315,0.0,5.0,58,0.00,,,0.00,0236,Weather View 32 v70,2013-05-23 00:08:00,
2013-05-22 17:13:00,70.5,54.0,29.71,NW,315,0.0,5.0,56,0.00,,,0.00,0167,Weather View 32 v70,2013-05-23 00:13:00,
2013-05-22 17:18:00,70.3,53.8,29.71,NW,319,0.0,5.0,56,0.00,,,0.00,0100,Weather View 32 v70,2013-05-23 00:18:00,
2013-05-22 17:23:00,70.2,53.7,29.71,NW,319,0.0,5.0,56,0.00,,,0.00,0084,Weather View 32 v70,2013-05-23 00:23:00,
2013-05-22 17:28:00,70.1,53.6,29.71,NW,319,0.0,5.0,56,0.00,,,0.00,0093,Weather View 32 v70,2013-05-23 00:28:00,
2013-05-22 17:33:00,69.6,53.6,29.71,NW,319,0.0,5.0,57,0.00,,,0.00,0292,Weather View 32 v70,2013-05-23 00:33:00,
2013-05-22 17:38:00,69.5,54.0,29.71,NW,319,0.0,5.0,58,0.00,,,0.00,0151,Weather View 32 v70,2013-05-23 00:38:00,
2013-05-22 17:43:00,69.6,53.2,29.71,NW,319,0.0,5.0,56,0.00,,,0.00,0139,Weather View 32 v70,2013-05-23 00:43:00,
2013-05-22 17:48:00,69.5,53.1,29.71,WNW,288,0.0,2.0,56,0.00,,,0.00,0171,Weather View 32 v70,2013-05-23 00:48:00,
2013-05-22 17:53:00,69.3,52.9,29.71,WNW,295,0.0,2.0,56,0.00,,,0.00,0264,Weather View 32 v70,2013-05-23 00:53:00,
2013-05-22 17:58:00,69.2,53.3,29.71,WNW,295,0.0,2.0,57,0.00,,,0.00,0134,Weather View 32 v70,2013-05-23 00:58:00,
2013-05-22 18:03:00,69.2,53.3,29.70,WNW,301,0.0,2.0,57,0.00,,,0.00,0190,Weather View 32 v70,2013-05-23 01:03:00,
2013-05-22 18:08:00,69.1,53.7,29.70,WNW,302,0.0,2.0,58,0.00,,,0.00,0127,Weather View 32 v70,2013-05-23 01:08:00,
2013-05-22 18:13:00,68.8,53.4,29.71,WNW,284,0.0,2.0,58,0.00,,,0.00,0072,Weather View 32 v70,2013-05-23 01:13:00,
2013-05-22 18:18:00,68.5,52.6,29.70,WNW,291,1.0,2.0,57,0.00,,,0.00,0054,Weather View 32 v70,2013-05-23 01:18:00,
2013-05-22 18:23:00,68.4,52.5,29.70,WNW,291,0.0,2.0,57,0.00,,,0.00,0049,Weather View 32 v70,2013-05-23 01:23:00,
2013-05-22 18:28:00,68.2,53.3,29.70,WNW,299,0.0,2.0,59,0.00,,,0.00,0044,Weather View 32 v70,2013-05-23 01:28:00,
2013-05-22 18:33:00,68.0,53.1,29.70,WNW,297,0.0,2.0,59,0.00,,,0.00,0040,Weather View 32 v70,2013-05-23 01:33:00,
2013-05-22 18:38:00,67.9,53.0,29.70,NW,307,0.0,4.0,59,0.00,,,0.00,0039,Weather View 32 v70,2013-05-23 01:38:00,
2013-05-22 18:43:00,67.8,52.9,29.71,WNW,303,0.0,5.0,59,0.00,,,0.00,0035,Weather View 32 v70,2013-05-23 01:43:00,
2013-05-22 18:48:00,67.5,52.6,29.71,WNW,300,0.0,6.0,59,0.00,,,0.00,0032,Weather View 32 v70,2013-05-23 01:48:00,
2013-05-22 18:53:00,67.1,52.7,29.71,WNW,300,0.0,6.0,60,0.00,,,0.00,0028,Weather View 32 v70,2013-05-23 01:53:00,
2013-05-22 18:58:00,66.8,52.4,29.71,NW,318,0.0,6.0,60,0.00,,,0.00,0025,Weather View 32 v70,2013-05-23 01:58:00,
2013-05-22 19:03:00,66.7,52.3,29.71,NW,317,0.0,6.0,60,0.00,,,0.00,0023,Weather View 32 v70,2013-05-23 02:03:00,
2013-05-22 19:08:00,66.3,51.5,29.71,WNW,301,0.0,6.0,59,0.00,,,0.00,0021,Weather View 32 v70,2013-05-23 02:08:00,
2013-05-22 19:13:00,65.8,51.0,29.71,WNW,297,4.0,7.0,59,0.00,,,0.00,0019,Weather View 32 v70,2013-05-23 02:13:00,
2013-05-22 19:18:00,65.1,50.8,29.71,NW,312,4.0,7.0,60,0.00,,,0.00,0016,Weather View 32 v70,2013-05-23 02:18:00,
2013-05-22 19:23:00,64.5,50.3,29.72,NW,323,2.0,7.0,60,0.00,,,0.00,0014,Weather View 32 v70,2013-05-23 02:23:00,
2013-05-22 19:28:00,64.0,49.8,29.72,NW,311,2.0,7.0,60,0.00,,,0.00,0012,Weather View 32 v70,2013-05-23 02:28:00,
2013-05-22 19:33:00,63.6,49.9,29.72,NW,311,0.0,7.0,61,0.00,,,0.00,0011,Weather View 32 v70,2013-05-23 02:33:00,
2013-05-22 19:38:00,63.3,49.1,29.72,NW,309,0.0,7.0,60,0.00,,,0.00,0009,Weather View 32 v70,2013-05-23 02:38:00,
2013-05-22 19:43:00,62.8,49.6,29.72,NW,307,1.0,7.0,62,0.00,,,0.00,0007,Weather View 32 v70,2013-05-23 02:43:00,
2013-05-22 19:48:00,62.4,48.7,29.72,NW,312,0.0,7.0,61,0.00,,,0.00,0005,Weather View 32 v70,2013-05-23 02:48:00,
2013-05-22 19:53:00,62.2,49.0,29.73,NW,311,0.0,7.0,62,0.00,,,0.00,0000,Weather View 32 v70,2013-05-23 02:53:00,
2013-05-22 19:58:00,61.8,48.6,29.73,NW,311,1.0,7.0,62,0.00,,,0.00,0000,Weather View 32 v70,2013-05-23 02:58:00,
2013-05-22 20:03:00,61.5,48.8,29.72,NW,311,0.0,7.0,63,0.00,,,0.00,0000,Weather View 32 v70,2013-05-23 03:03:00,
2013-05-22 20:08:00,61.1,48.8,29.73,NW,311,0.0,7.0,64,0.00,,,0.00,0000,Weather View 32 v70,2013-05-23 03:08:00,
2013-05-22 20:13:00,60.7,48.4,29.73,NW,311,0.0,7.0,64,0.00,,,0.00,0000,Weather View 32 v70,2013-05-23 03:13:00,
2013-05-22 20:18:00,60.5,48.2,29.73,NW,311,0.0,7.0,64,0.00,,,0.00,0000,Weather View 32 v70,2013-05-23 03:18:00,
2013-05-22 20:23:00,60.5,48.2,29.73,NW,311,0.0,6.0,64,0.00,,,0.00,0000,Weather View 32 v70,2013-05-23 03:23:00,
2013-05-22 20:28:00,60.3,48.5,29.73,NW,311,0.0,6.0,65,0.00,,,0.00,0000,Weather View 32 v70,2013-05-23 03:28:00,
2013-05-22 20:33:00,60.2,48.4,29.73,NW,311,0.0,6.0,65,0.00,,,0.00,0000,Weather View 32 v70,2013-05-23 03:33:00,
2013-05-22 20:38:00,59.8,48.4,29.73,NW,311,0.0,6.0,66,0.00,,,0.00,0000,Weather View 32 v70,2013-05-23 03:38:00,
2013-05-22 20:43:00,59.3,47.9,29.73,NW,311,0.0,4.0,66,0.00,,,0.00,0000,Weather View 32 v70,2013-05-23 03:43:00,
2013-05-22 20:48:00,59.2,48.2,29.74,NW,311,0.0,4.0,67,0.00,,,0.00,0000,Weather View 32 v70,2013-05-23 03:48:00,
2013-05-22 20:53:00,59.3,48.3,29.74,NW,311,0.0,2.0,67,0.00,,,0.00,0000,Weather View 32 v70,2013-05-23 03:53:00,
2013-05-22 20:58:00,59.3,48.3,29.74,NW,311,0.0,2.0,67,0.00,,,0.00,0000,Weather View 32 v70,2013-05-23 03:58:00,
2013-05-22 21:01:00,59.2,48.2,29.74,NW,311,0.0,1.0,67,0.00,,,0.00,0000,Weather View 32 v70,2013-05-23 04:01:00,
2013-05-22 21:06:00,59.4,48.4,29.74,NW,311,0.0,1.0,67,0.00,,,0.00,0000,Weather View 32 v70,2013-05-23 04:06:00,
2013-05-22 21:11:00,59.3,48.3,29.74,NW,311,0.0,1.0,67,0.00,,,0.00,0000,Weather View 32 v70,2013-05-23 04:11:00,
2013-05-22 21:16:00,59.2,48.6,29.74,NW,311,0.0,1.0,68,0.00,,,0.00,0000,Weather View 32 v70,2013-05-23 04:16:00,
2013-05-22 21:21:00,59.0,48.4,29.74,NW,311,0.0,1.0,68,0.00,,,0.00,0000,Weather View 32 v70,2013-05-23 04:21:00,
2013-05-22 21:26:00,58.8,48.2,29.74,NW,311,0.0,1.0,68,0.00,,,0.00,0000,Weather View 32 v70,2013-05-23 04:26:00,
2013-05-22 21:31:00,58.5,48.3,29.75,NW,311,0.0,1.0,69,0.00,,,0.00,0000,Weather View 32 v70,2013-05-23 04:31:00,
2013-05-22 21:36:00,58.0,48.2,29.75,NW,311,0.0,1.0,70,0.00,,,0.00,0000,Weather View 32 v70,2013-05-23 04:36:00,
2013-05-22 21:41:00,58.0,48.2,29.75,NW,311,0.0,1.0,70,0.00,,,0.00,0000,Weather View 32 v70,2013-05-23 04:41:00,
2013-05-22 21:46:00,57.7,48.3,29.75,NW,311,0.0,1.0,71,0.00,,,0.00,0000,Weather View 32 v70,2013-05-23 04:46:00,
2013-05-22 21:51:00,57.6,47.9,29.76,NW,311,0.0,1.0,70,0.00,,,0.00,0000,Weather View 32 v70,2013-05-23 04:51:00,
2013-05-22 21:56:00,57.5,48.5,29.76,NW,311,0.0,1.0,72,0.00,,,0.00,0000,Weather View 32 v70,2013-05-23 04:56:00,
2013-05-22 22:01:00,57.1,48.1,29.76,NW,311,0.0,1.0,72,0.00,,,0.00,0000,Weather View 32 v70,2013-05-23 05:01:00,
2013-05-22 22:06:00,57.1,48.1,29.76,NW,311,0.0,1.0,72,0.00,,,0.00,0000,Weather View 32 v70,2013-05-23 05:06:00,
2013-05-22 22:11:00,56.9,47.6,29.77,NW,311,0.0,1.0,71,0.00,,,0.00,0000,Weather View 32 v70,2013-05-23 05:11:00,
2013-05-22 22:16:00,56.9,47.9,29.77,NW,311,0.0,1.0,72,0.00,,,0.00,0000,Weather View 32 v70,2013-05-23 05:16:00,
2013-05-22 22:21:00,56.8,47.8,29.77,NW,311,0.0,1.0,72,0.00,,,0.00,0000,Weather View 32 v70,2013-05-23 05:21:00,
2013-05-22 22:26:00,56.7,47.8,29.76,NW,311,0.0,0.0,72,0.00,,,0.00,0000,Weather View 32 v70,2013-05-23 05:26:00,
2013-05-22 22:31:00,56.5,47.9,29.77,NW,311,0.0,0.0,73,0.00,,,0.00,0000,Weather View 32 v70,2013-05-23 05:31:00,
2013-05-22 22:36:00,56.1,47.5,29.77,NW,311,0.0,0.0,73,0.00,,,0.00,0000,Weather View 32 v70,2013-05-23 05:36:00,
2013-05-22 22:41:00,55.9,47.4,29.77,NW,311,0.0,0.0,73,0.00,,,0.00,0000,Weather View 32 v70,2013-05-23 05:41:00,
2013-05-22 22:46:00,56.0,47.8,29.77,NW,311,0.0,1.0,74,0.00,,,0.00,0000,Weather View 32 v70,2013-05-23 05:46:00,
2013-05-22 22:51:00,55.9,47.7,29.77,NW,311,0.0,1.0,74,0.00,,,0.00,0000,Weather View 32 v70,2013-05-23 05:51:00,
2013-05-22 22:56:00,55.9,47.7,29.77,NW,311,0.0,1.0,74,0.00,,,0.00,0000,Weather View 32 v70,2013-05-23 05:56:00,
2013-05-22 23:01:00,55.7,47.9,29.77,NW,311,0.0,1.0,75,0.00,,,0.00,0000,Weather View 32 v70,2013-05-23 06:01:00,
2013-05-22 23:06:00,55.4,47.6,29.77,NW,311,0.0,1.0,75,0.00,,,0.00,0000,Weather View 32 v70,2013-05-23 06:06:00,
2013-05-22 23:11:00,55.4,47.6,29.77,NW,311,0.0,1.0,75,0.00,,,0.00,0000,Weather View 32 v70,2013-05-23 06:11:00,
2013-05-22 23:16:00,55.0,47.2,29.77,NW,311,0.0,1.0,75,0.00,,,0.00,0000,Weather View 32 v70,2013-05-23 06:16:00,
2013-05-22 23:21:00,54.8,47.4,29.77,NW,311,0.0,1.0,76,0.00,,,0.00,0000,Weather View 32 v70,2013-05-23 06:21:00,
2013-05-22 23:26:00,54.7,47.3,29.77,NW,311,0.0,1.0,76,0.00,,,0.00,0000,Weather View 32 v70,2013-05-23 06:26:00,
2013-05-22 23:31:00,54.8,47.4,29.77,NW,311,0.0,1.0,76,0.00,,,0.00,0000,Weather View 32 v70,2013-05-23 06:31:00,
2013-05-22 23:37:00,54.7,47.3,29.78,NW,311,0.0,1.0,76,0.00,,,0.00,0000,Weather View 32 v70,2013-05-23 06:37:00,
2013-05-22 23:42:00,54.7,47.3,29.78,NW,311,0.0,1.0,76,0.00,,,0.00,0000,Weather View 32 v70,2013-05-23 06:42:00,
2013-05-22 23:46:00,54.5,47.1,29.78,NW,311,0.0,0.0,76,0.00,,,0.00,0000,Weather View 32 v70,2013-05-23 06:46:00,
2013-05-22 23:51:00,54.2,46.8,29.78,NW,311,0.0,1.0,76,0.00,,,0.00,0000,Weather View 32 v70,2013-05-23 06:51:00,
2013-05-22 23:57:00,54.1,47.0,29.78,NW,311,0.0,1.0,77,0.00,,,0.00,0000,Weather View 32 v70,2013-05-23 06:57:00,